createdAt,value
2018-06-09T00:00:39.301Z,1007.22
2018-06-09T00:01:39.209Z,1007.20
2018-06-09T00:02:39.138Z,1007.18
2018-06-09T00:03:39.015Z,1007.18
2018-06-09T00:04:38.925Z,1007.17
2018-06-09T00:05:38.833Z,1007.14
2018-06-09T00:06:38.743Z,1007.15
2018-06-09T00:07:38.652Z,1007.17
2018-06-09T00:08:38.562Z,1007.19
2018-06-09T00:09:38.470Z,1007.15
2018-06-09T00:10:38.369Z,1007.21
2018-06-09T00:11:38.277Z,1007.16
2018-06-09T00:12:38.185Z,1007.18
2018-06-09T00:13:38.097Z,1007.21
2018-06-09T00:14:38.004Z,1007.19
2018-06-09T00:15:37.914Z,1007.19
2018-06-09T00:16:37.821Z,1007.15
2018-06-09T00:17:37.732Z,1007.17
2018-06-09T00:18:37.641Z,1007.20
2018-06-09T00:19:37.587Z,1007.20
2018-06-09T00:20:37.447Z,1007.20
2018-06-09T00:21:37.355Z,1007.21
2018-06-09T00:22:37.265Z,1007.24
2018-06-09T00:23:37.174Z,1007.23
2018-06-09T00:24:37.083Z,1007.21
2018-06-09T00:25:36.983Z,1007.20
2018-06-09T00:26:36.903Z,1007.24
2018-06-09T00:27:36.798Z,1007.28
2018-06-09T00:28:36.708Z,1007.28
2018-06-09T00:29:36.617Z,1007.29
2018-06-09T00:30:36.526Z,1007.29
2018-06-09T00:31:36.436Z,1007.33
2018-06-09T00:32:36.357Z,1007.37
2018-06-09T00:33:36.254Z,1007.34
2018-06-09T00:34:36.162Z,1007.38
2018-06-09T00:35:36.059Z,1007.36
2018-06-09T00:36:35.974Z,1007.38
2018-06-09T00:37:35.877Z,1007.34
2018-06-09T00:38:35.788Z,1007.39
2018-06-09T00:39:35.696Z,1007.39
2018-06-09T00:40:35.607Z,1007.43
2018-06-09T00:41:35.764Z,1007.43
2018-06-09T00:42:35.413Z,1007.38
2018-06-09T00:43:35.321Z,1007.42
2018-06-09T00:44:35.230Z,1007.46
2018-06-09T00:45:35.138Z,1007.44
2018-06-09T00:46:35.048Z,1007.47
2018-06-09T00:47:34.957Z,1007.44
2018-06-09T00:48:34.866Z,1007.44
2018-06-09T00:49:34.765Z,1007.44
2018-06-09T00:50:34.673Z,1007.46
2018-06-09T00:51:34.581Z,1007.43
2018-06-09T00:52:34.491Z,1007.45
2018-06-09T00:53:34.400Z,1007.41
2018-06-09T00:54:34.314Z,1007.42
2018-06-09T00:55:34.217Z,1007.37
2018-06-09T00:56:34.128Z,1007.44
2018-06-09T00:57:34.025Z,1007.43
2018-06-09T00:58:33.947Z,1007.44
2018-06-09T00:59:33.843Z,1007.46
2018-06-09T01:00:33.752Z,1007.45
2018-06-09T01:01:33.661Z,1007.48
2018-06-09T01:02:33.570Z,1007.44
2018-06-09T01:03:33.468Z,1007.46
2018-06-09T01:04:33.376Z,1007.46
2018-06-09T01:05:33.285Z,1007.49
2018-06-09T01:06:33.195Z,1007.48
2018-06-09T01:07:33.103Z,1007.48
2018-06-09T01:08:33.014Z,1007.44
2018-06-09T01:09:32.921Z,1007.50
2018-06-09T01:10:32.820Z,1007.50
2018-06-09T01:11:32.728Z,1007.50
2018-06-09T01:12:32.636Z,1007.48
2018-06-09T01:13:32.547Z,1007.47
2018-06-09T01:14:32.458Z,1007.50
2018-06-09T01:15:32.368Z,1007.50
2018-06-09T01:16:32.277Z,1007.51
2018-06-09T01:17:32.171Z,1007.53
2018-06-09T01:18:32.081Z,1007.54
2018-06-09T01:19:31.989Z,1007.53
2018-06-09T01:20:31.898Z,1007.54
2018-06-09T01:21:31.810Z,1007.49
2018-06-09T01:22:31.717Z,1007.49
2018-06-09T01:23:31.615Z,1007.51
2018-06-09T01:24:31.535Z,1007.50
2018-06-09T01:25:31.432Z,1007.49
2018-06-09T01:26:31.340Z,1007.49
2018-06-09T01:27:31.250Z,1007.49
2018-06-09T01:28:31.159Z,1007.51
2018-06-09T01:29:31.068Z,1007.53
2018-06-09T01:30:30.967Z,1007.51
2018-06-09T01:31:30.874Z,1007.53
2018-06-09T01:32:30.785Z,1007.55
2018-06-09T01:33:30.692Z,1007.59
2018-06-09T01:34:30.605Z,1007.57
2018-06-09T01:35:30.510Z,1007.56
2018-06-09T01:36:30.407Z,1007.59
2018-06-09T01:37:30.317Z,1007.62
2018-06-09T01:38:30.224Z,1007.60
2018-06-09T01:39:30.135Z,1007.62
2018-06-09T01:40:30.044Z,1007.59
2018-06-09T01:41:29.953Z,1007.58
2018-06-09T01:42:29.850Z,1007.57
2018-06-09T01:43:29.758Z,1007.56
2018-06-09T01:44:29.687Z,1007.61
2018-06-09T01:45:29.577Z,1007.60
2018-06-09T01:46:29.739Z,1007.60
2018-06-09T01:47:29.395Z,1007.54
2018-06-09T01:48:29.292Z,1007.55
2018-06-09T01:49:29.201Z,1007.57
2018-06-09T01:50:29.109Z,1007.57
2018-06-09T01:51:29.019Z,1007.57
2018-06-09T01:52:28.927Z,1007.61
2018-06-09T01:53:28.837Z,1007.60
2018-06-09T01:54:28.734Z,1007.59
2018-06-09T01:55:28.642Z,1007.61
2018-06-09T01:56:28.552Z,1007.58
2018-06-09T01:57:28.460Z,1007.61
2018-06-09T01:58:28.370Z,1007.57
2018-06-09T01:59:28.280Z,1007.59
2018-06-09T02:00:28.178Z,1007.62
2018-06-09T02:01:28.088Z,1007.58
2018-06-09T02:02:27.994Z,1007.60
2018-06-09T02:03:27.904Z,1007.57
2018-06-09T02:04:27.812Z,1007.57
2018-06-09T02:05:27.710Z,1007.59
2018-06-09T02:06:27.870Z,1007.50
2018-06-09T02:07:27.527Z,1007.51
2018-06-09T02:08:27.439Z,1007.50
2018-06-09T02:09:27.346Z,1007.45
2018-06-09T02:10:27.256Z,1007.46
2018-06-09T02:11:27.152Z,1007.46
2018-06-09T02:12:27.062Z,1007.45
2018-06-09T02:13:26.971Z,1007.46
2018-06-09T02:14:26.879Z,1007.52
2018-06-09T02:15:26.790Z,1007.43
2018-06-09T02:16:26.691Z,1007.43
2018-06-09T02:17:26.595Z,1007.48
2018-06-09T02:18:26.505Z,1007.40
2018-06-09T02:19:26.436Z,1007.42
2018-06-09T02:20:26.323Z,1007.40
2018-06-09T02:21:26.236Z,1007.42
2018-06-09T02:22:26.128Z,1007.42
2018-06-09T02:23:26.038Z,1007.42
2018-06-09T02:24:25.947Z,1007.39
2018-06-09T02:25:25.856Z,1007.43
2018-06-09T02:26:26.071Z,1007.39
2018-06-09T02:27:25.662Z,1007.39
2018-06-09T02:28:25.572Z,1007.34
2018-06-09T02:29:25.480Z,1007.35
2018-06-09T02:30:25.390Z,1007.28
2018-06-09T02:31:25.298Z,1007.27
2018-06-09T02:32:25.197Z,1007.30
2018-06-09T02:33:25.105Z,1007.31
2018-06-09T02:34:25.013Z,1007.28
2018-06-09T02:35:24.924Z,1007.28
2018-06-09T02:36:24.832Z,1007.27
2018-06-09T02:37:24.730Z,1007.27
2018-06-09T02:38:24.638Z,1007.24
2018-06-09T02:39:24.547Z,1007.26
2018-06-09T02:40:24.457Z,1007.21
2018-06-09T02:41:24.365Z,1007.22
2018-06-09T02:42:24.275Z,1007.30
2018-06-09T02:43:24.172Z,1007.24
2018-06-09T02:44:24.081Z,1007.27
2018-06-09T02:45:23.991Z,1007.26
2018-06-09T02:46:23.901Z,1007.32
2018-06-09T02:47:23.797Z,1007.30
2018-06-09T02:48:23.705Z,1007.24
2018-06-09T02:49:23.614Z,1007.21
2018-06-09T02:50:23.524Z,1007.23
2018-06-09T02:51:23.433Z,1007.23
2018-06-09T02:52:23.342Z,1007.20
2018-06-09T02:53:23.241Z,1007.22
2018-06-09T02:54:23.147Z,1007.20
2018-06-09T02:55:23.057Z,1007.20
2018-06-09T02:56:22.966Z,1007.23
2018-06-09T02:57:22.876Z,1007.20
2018-06-09T02:58:22.773Z,1007.23
2018-06-09T02:59:22.681Z,1007.23
2018-06-09T03:00:22.591Z,1007.23
2018-06-09T03:01:22.513Z,1007.22
2018-06-09T03:02:22.410Z,1007.24
2018-06-09T03:03:22.306Z,1007.24
2018-06-09T03:04:22.215Z,1007.23
2018-06-09T03:05:22.125Z,1007.21
2018-06-09T03:06:22.033Z,1007.22
2018-06-09T03:07:21.934Z,1007.17
2018-06-09T03:08:21.840Z,1007.18
2018-06-09T03:09:21.748Z,1007.14
2018-06-09T03:10:21.658Z,1007.19
2018-06-09T03:11:21.817Z,1007.19
2018-06-09T03:12:21.465Z,1007.18
2018-06-09T03:13:21.373Z,1007.19
2018-06-09T03:14:21.282Z,1007.18
2018-06-09T03:15:21.192Z,1007.18
2018-06-09T03:16:21.100Z,1007.16
2018-06-09T03:17:20.998Z,1007.14
2018-06-09T03:18:20.906Z,1007.17
2018-06-09T03:19:20.818Z,1007.19
2018-06-09T03:20:20.725Z,1007.15
2018-06-09T03:21:20.883Z,1007.11
2018-06-09T03:22:20.543Z,1007.10
2018-06-09T03:23:20.439Z,1007.09
2018-06-09T03:24:20.348Z,1007.07
2018-06-09T03:25:20.259Z,1007.09
2018-06-09T03:26:20.166Z,1007.09
2018-06-09T03:27:20.080Z,1007.12
2018-06-09T03:28:19.977Z,1007.08
2018-06-09T03:29:19.882Z,1007.10
2018-06-09T03:30:19.792Z,1007.09
2018-06-09T03:31:19.700Z,1007.10
2018-06-09T03:32:19.610Z,1007.10
2018-06-09T03:33:19.507Z,1007.06
2018-06-09T03:34:19.415Z,1007.09
2018-06-09T03:35:19.325Z,1007.08
2018-06-09T03:36:19.234Z,1007.09
2018-06-09T03:37:19.144Z,1007.06
2018-06-09T03:38:19.052Z,1007.10
2018-06-09T03:39:18.949Z,1007.11
2018-06-09T03:40:18.863Z,1007.13
2018-06-09T03:41:18.767Z,1007.13
2018-06-09T03:42:18.677Z,1007.11
2018-06-09T03:43:18.658Z,1007.10
2018-06-09T03:44:18.483Z,1007.13
2018-06-09T03:45:18.393Z,1007.09
2018-06-09T03:46:18.300Z,1007.14
2018-06-09T03:47:18.210Z,1007.11
2018-06-09T03:48:18.119Z,1007.09
2018-06-09T03:49:18.017Z,1007.14
2018-06-09T03:50:17.926Z,1007.14
2018-06-09T03:51:17.837Z,1007.16
2018-06-09T03:52:17.744Z,1007.12
2018-06-09T03:53:17.653Z,1007.19
2018-06-09T03:54:17.564Z,1007.18
2018-06-09T03:55:17.471Z,1007.18
2018-06-09T03:56:17.367Z,1007.16
2018-06-09T03:57:17.277Z,1007.16
2018-06-09T03:58:17.185Z,1007.15
2018-06-09T03:59:17.098Z,1007.14
2018-06-09T04:00:17.004Z,1007.20
2018-06-09T04:01:17.214Z,1007.18
2018-06-09T04:02:16.822Z,1007.21
2018-06-09T04:03:16.719Z,1007.22
2018-06-09T04:04:16.630Z,1007.27
2018-06-09T04:05:16.537Z,1007.24
2018-06-09T04:06:16.447Z,1007.31
2018-06-09T04:07:16.355Z,1007.25
2018-06-09T04:08:16.266Z,1007.24
2018-06-09T04:09:16.178Z,1007.22
2018-06-09T04:10:16.078Z,1007.20
2018-06-09T04:11:16.242Z,1007.18
2018-06-09T04:12:15.903Z,1007.22
2018-06-09T04:13:15.800Z,1007.21
2018-06-09T04:14:15.708Z,1007.25
2018-06-09T04:15:15.618Z,1007.24
2018-06-09T04:16:15.526Z,1007.23
2018-06-09T04:17:15.437Z,1007.24
2018-06-09T04:18:15.344Z,1007.24
2018-06-09T04:19:15.254Z,1007.24
2018-06-09T04:20:15.162Z,1007.27
2018-06-09T04:21:15.074Z,1007.27
2018-06-09T04:22:14.983Z,1007.27
2018-06-09T04:23:14.892Z,1007.25
2018-06-09T04:24:14.799Z,1007.28
2018-06-09T04:25:14.698Z,1007.32
2018-06-09T04:26:14.907Z,1007.35
2018-06-09T04:27:14.517Z,1007.37
2018-06-09T04:28:14.426Z,1007.38
2018-06-09T04:29:14.333Z,1007.42
2018-06-09T04:30:14.243Z,1007.41
2018-06-09T04:31:14.152Z,1007.40
2018-06-09T04:32:14.062Z,1007.36
2018-06-09T04:33:13.970Z,1007.36
2018-06-09T04:34:13.883Z,1007.40
2018-06-09T04:35:13.788Z,1007.35
2018-06-09T04:36:13.998Z,1007.32
2018-06-09T04:37:13.607Z,1007.32
2018-06-09T04:38:13.522Z,1007.37
2018-06-09T04:39:13.426Z,1007.36
2018-06-09T04:40:13.335Z,1007.37
2018-06-09T04:41:13.244Z,1007.36
2018-06-09T04:42:13.154Z,1007.43
2018-06-09T04:43:13.063Z,1007.33
2018-06-09T04:44:12.972Z,1007.36
2018-06-09T04:45:12.880Z,1007.34
2018-06-09T04:46:12.791Z,1007.35
2018-06-09T04:47:12.699Z,1007.32
2018-06-09T04:48:12.609Z,1007.32
2018-06-09T04:49:12.520Z,1007.28
2018-06-09T04:50:12.439Z,1007.31
2018-06-09T04:51:12.350Z,1007.32
2018-06-09T04:52:12.285Z,1007.33
2018-06-09T04:53:12.167Z,1007.35
2018-06-09T04:54:12.077Z,1007.35
2018-06-09T04:55:11.986Z,1007.33
2018-06-09T04:56:11.894Z,1007.32
2018-06-09T04:57:11.804Z,1007.34
2018-06-09T04:58:11.726Z,1007.37
2018-06-09T04:59:11.637Z,1007.37
2018-06-09T05:00:11.545Z,1007.42
2018-06-09T05:01:11.453Z,1007.42
2018-06-09T05:02:11.363Z,1007.42
2018-06-09T05:03:11.272Z,1007.38
2018-06-09T05:04:11.193Z,1007.38
2018-06-09T05:05:11.102Z,1007.37
2018-06-09T05:06:11.011Z,1007.41
2018-06-09T05:07:10.929Z,1007.42
2018-06-09T05:08:10.855Z,1007.45
2018-06-09T05:09:10.751Z,1007.49
2018-06-09T05:10:10.667Z,1007.49
2018-06-09T05:11:10.570Z,1007.56
2018-06-09T05:12:10.494Z,1007.56
2018-06-09T05:13:10.402Z,1007.53
2018-06-09T05:14:10.310Z,1007.54
2018-06-09T05:15:10.220Z,1007.47
2018-06-09T05:16:10.141Z,1007.44
2018-06-09T05:17:10.050Z,1007.49
2018-06-09T05:18:09.960Z,1007.48
2018-06-09T05:19:09.869Z,1007.45
2018-06-09T05:20:09.790Z,1007.44
2018-06-09T05:21:10.000Z,1007.47
2018-06-09T05:22:09.609Z,1007.45
2018-06-09T05:23:09.522Z,1007.45
2018-06-09T05:24:09.441Z,1007.44
2018-06-09T05:25:09.359Z,1007.45
2018-06-09T05:26:09.259Z,1007.46
2018-06-09T05:27:09.180Z,1007.45
2018-06-09T05:28:09.090Z,1007.48
2018-06-09T05:29:08.999Z,1007.43
2018-06-09T05:30:08.920Z,1007.44
2018-06-09T05:31:08.829Z,1007.49
2018-06-09T05:32:08.738Z,1007.52
2018-06-09T05:33:08.661Z,1007.55
2018-06-09T05:34:08.569Z,1007.60
2018-06-09T05:35:08.478Z,1007.62
2018-06-09T05:36:08.401Z,1007.59
2018-06-09T05:37:08.309Z,1007.62
2018-06-09T05:38:08.220Z,1007.66
2018-06-09T05:39:08.143Z,1007.67
2018-06-09T05:40:08.052Z,1007.65
2018-06-09T05:41:07.962Z,1007.65
2018-06-09T05:42:07.881Z,1007.65
2018-06-09T05:43:07.790Z,1007.67
2018-06-09T05:44:07.711Z,1007.67
2018-06-09T05:45:07.621Z,1007.67
2018-06-09T05:46:07.529Z,1007.65
2018-06-09T05:47:07.451Z,1007.70
2018-06-09T05:48:07.361Z,1007.67
2018-06-09T05:49:07.283Z,1007.64
2018-06-09T05:50:07.191Z,1007.63
2018-06-09T05:51:07.101Z,1007.70
2018-06-09T05:52:07.022Z,1007.68
2018-06-09T05:53:06.931Z,1007.71
2018-06-09T05:54:06.840Z,1007.77
2018-06-09T05:55:06.764Z,1007.80
2018-06-09T05:56:06.673Z,1007.86
2018-06-09T05:57:06.592Z,1007.81
2018-06-09T05:58:06.503Z,1007.84
2018-06-09T05:59:06.412Z,1007.82
2018-06-09T06:00:06.333Z,1007.85
2018-06-09T06:01:06.243Z,1007.85
2018-06-09T06:02:06.164Z,1007.87
2018-06-09T06:03:06.140Z,1007.87
2018-06-09T06:04:05.984Z,1007.90
2018-06-09T06:05:05.904Z,1007.92
2018-06-09T06:06:05.815Z,1007.92
2018-06-09T06:07:05.735Z,1007.96
2018-06-09T06:08:05.644Z,1008.03
2018-06-09T06:09:05.566Z,1008.00
2018-06-09T06:10:05.475Z,1008.03
2018-06-09T06:11:05.384Z,1008.04
2018-06-09T06:12:05.306Z,1008.00
2018-06-09T06:13:05.227Z,1007.96
2018-06-09T06:14:05.136Z,1007.98
2018-06-09T06:15:05.047Z,1008.03
2018-06-09T06:16:04.967Z,1008.05
2018-06-09T06:17:04.876Z,1008.06
2018-06-09T06:18:04.798Z,1008.13
2018-06-09T06:19:04.708Z,1008.11
2018-06-09T06:20:04.617Z,1008.11
2018-06-09T06:21:04.788Z,1008.09
2018-06-09T06:22:04.447Z,1008.13
2018-06-09T06:23:04.368Z,1008.12
2018-06-09T06:24:04.284Z,1008.14
2018-06-09T06:25:04.200Z,1008.13
2018-06-09T06:26:04.110Z,1008.17
2018-06-09T06:27:04.031Z,1008.15
2018-06-09T06:28:03.939Z,1008.11
2018-06-09T06:29:03.862Z,1008.10
2018-06-09T06:30:03.771Z,1008.12
2018-06-09T06:31:03.693Z,1008.09
2018-06-09T06:32:03.602Z,1008.11
2018-06-09T06:33:03.524Z,1008.14
2018-06-09T06:34:03.433Z,1008.16
2018-06-09T06:35:03.354Z,1008.17
2018-06-09T06:36:03.276Z,1008.20
2018-06-09T06:37:03.176Z,1008.23
2018-06-09T06:38:03.094Z,1008.25
2018-06-09T06:39:03.017Z,1008.27
2018-06-09T06:40:02.925Z,1008.29
2018-06-09T06:41:03.100Z,1008.27
2018-06-09T06:42:02.757Z,1008.31
2018-06-09T06:43:02.679Z,1008.33
2018-06-09T06:44:02.586Z,1008.34
2018-06-09T06:45:02.548Z,1008.37
2018-06-09T06:46:02.419Z,1008.37
2018-06-09T06:47:02.341Z,1008.41
2018-06-09T06:48:02.261Z,1008.43
2018-06-09T06:49:02.171Z,1008.42
2018-06-09T06:50:02.092Z,1008.42
2018-06-09T06:51:02.002Z,1008.44
2018-06-09T06:52:01.924Z,1008.44
2018-06-09T06:53:01.845Z,1008.42
2018-06-09T06:54:01.754Z,1008.46
2018-06-09T06:55:01.675Z,1008.48
2018-06-09T06:56:01.586Z,1008.54
2018-06-09T06:57:01.510Z,1008.53
2018-06-09T06:58:01.429Z,1008.53
2018-06-09T06:59:01.340Z,1008.57
2018-06-09T07:00:01.272Z,1008.58
2018-06-09T07:01:01.186Z,1008.61
2018-06-09T07:02:01.120Z,1008.60
2018-06-09T07:03:01.012Z,1008.63
2018-06-09T07:04:00.935Z,1008.58
2018-06-09T07:05:00.855Z,1008.58
2018-06-09T07:06:00.778Z,1008.60
2018-06-09T07:07:00.687Z,1008.60
2018-06-09T07:08:00.630Z,1008.63
2018-06-09T07:09:00.542Z,1008.63
2018-06-09T07:10:00.451Z,1008.61
2018-06-09T07:11:00.372Z,1008.65
2018-06-09T07:12:00.294Z,1008.67
2018-06-09T07:13:00.204Z,1008.64
2018-06-09T07:14:00.126Z,1008.61
2018-06-09T07:15:00.051Z,1008.65
2018-06-09T07:15:59.969Z,1008.63
2018-06-09T07:16:59.897Z,1008.62
2018-06-09T07:17:59.811Z,1008.56
2018-06-09T07:18:59.720Z,1008.62
2018-06-09T07:19:59.643Z,1008.60
2018-06-09T07:20:59.565Z,1008.59
2018-06-09T07:21:59.489Z,1008.58
2018-06-09T07:22:59.411Z,1008.61
2018-06-09T07:23:59.329Z,1008.58
2018-06-09T07:24:59.239Z,1008.61
2018-06-09T07:25:59.161Z,1008.64
2018-06-09T07:26:59.082Z,1008.62
2018-06-09T07:27:59.004Z,1008.61
2018-06-09T07:28:58.927Z,1008.63
2018-06-09T07:29:58.854Z,1008.60
2018-06-09T07:30:58.757Z,1008.57
2018-06-09T07:31:58.692Z,1008.57
2018-06-09T07:32:58.600Z,1008.58
2018-06-09T07:33:58.521Z,1008.54
2018-06-09T07:34:58.443Z,1008.56
2018-06-09T07:35:58.366Z,1008.59
2018-06-09T07:36:58.286Z,1008.58
2018-06-09T07:37:58.196Z,1008.54
2018-06-09T07:38:58.117Z,1008.55
2018-06-09T07:39:58.043Z,1008.58
2018-06-09T07:40:57.964Z,1008.62
2018-06-09T07:41:57.882Z,1008.57
2018-06-09T07:42:57.805Z,1008.58
2018-06-09T07:43:57.726Z,1008.58
2018-06-09T07:44:57.636Z,1008.58
2018-06-09T07:45:57.556Z,1008.53
2018-06-09T07:46:57.479Z,1008.53
2018-06-09T07:47:57.417Z,1008.53
2018-06-09T07:48:57.334Z,1008.51
2018-06-09T07:49:57.243Z,1008.56
2018-06-09T07:50:57.168Z,1008.59
2018-06-09T07:51:57.086Z,1008.56
2018-06-09T07:52:56.996Z,1008.55
2018-06-09T07:53:56.925Z,1008.55
2018-06-09T07:54:56.839Z,1008.55
2018-06-09T07:55:56.762Z,1008.53
2018-06-09T07:56:56.683Z,1008.49
2018-06-09T07:57:56.610Z,1008.50
2018-06-09T07:58:56.526Z,1008.48
2018-06-09T07:59:56.437Z,1008.49
2018-06-09T08:00:56.357Z,1008.52
2018-06-09T08:01:56.282Z,1008.52
2018-06-09T08:02:56.201Z,1008.50
2018-06-09T08:03:56.122Z,1008.49
2018-06-09T08:04:56.051Z,1008.53
2018-06-09T08:05:55.967Z,1008.56
2018-06-09T08:06:55.945Z,1008.56
2018-06-09T08:07:55.801Z,1008.62
2018-06-09T08:08:55.718Z,1008.51
2018-06-09T08:09:55.640Z,1008.34
2018-06-09T08:10:55.562Z,1008.19
2018-06-09T08:11:55.483Z,1008.10
2018-06-09T08:12:55.408Z,1008.07
2018-06-09T08:13:55.329Z,1008.07
2018-06-09T08:14:55.234Z,1008.02
2018-06-09T08:15:55.157Z,1008.04
2018-06-09T08:16:55.079Z,1008.07
2018-06-09T08:17:55.000Z,1008.18
2018-06-09T08:18:54.912Z,1008.27
2018-06-09T08:19:54.831Z,1008.32
2018-06-09T08:20:54.754Z,1008.38
2018-06-09T08:21:54.662Z,1008.43
2018-06-09T08:22:54.583Z,1008.41
2018-06-09T08:23:54.519Z,1008.46
2018-06-09T08:24:54.415Z,1008.44
2018-06-09T08:25:54.337Z,1008.53
2018-06-09T08:26:54.245Z,1008.45
2018-06-09T08:27:54.168Z,1008.45
2018-06-09T08:28:54.076Z,1008.45
2018-06-09T08:29:54.000Z,1008.50
2018-06-09T08:30:53.907Z,1008.53
2018-06-09T08:31:53.829Z,1008.49
2018-06-09T08:32:53.738Z,1008.59
2018-06-09T08:33:53.661Z,1008.63
2018-06-09T08:34:53.568Z,1008.70
2018-06-09T08:35:53.490Z,1008.84
2018-06-09T08:36:53.400Z,1009.06
2018-06-09T08:37:53.324Z,1008.99
2018-06-09T08:38:53.231Z,1008.96
2018-06-09T08:39:53.153Z,1009.18
2018-06-09T08:40:53.063Z,1009.26
2018-06-09T08:41:52.983Z,1009.28
2018-06-09T08:42:52.892Z,1009.48
2018-06-09T08:43:52.817Z,1009.59
2018-06-09T08:44:52.724Z,1009.31
2018-06-09T08:45:52.646Z,1009.04
2018-06-09T08:46:52.566Z,1008.88
2018-06-09T08:47:52.475Z,1008.76
2018-06-09T08:48:52.410Z,1008.60
2018-06-09T08:49:52.319Z,1008.53
2018-06-09T08:50:52.229Z,1008.46
2018-06-09T08:51:52.151Z,1008.39
2018-06-09T08:52:52.072Z,1008.35
2018-06-09T08:53:51.981Z,1008.28
2018-06-09T08:54:51.904Z,1008.23
2018-06-09T08:55:51.824Z,1008.16
2018-06-09T08:56:51.779Z,1008.17
2018-06-09T08:57:51.667Z,1008.15
2018-06-09T08:58:51.577Z,1008.15
2018-06-09T08:59:51.499Z,1008.16
2018-06-09T09:00:51.421Z,1008.11
2018-06-09T09:01:51.343Z,1008.12
2018-06-09T09:02:51.264Z,1008.12
2018-06-09T09:03:51.173Z,1008.23
2018-06-09T09:04:51.094Z,1008.18
2018-06-09T09:05:51.017Z,1008.22
2018-06-09T09:06:50.937Z,1008.26
2018-06-09T09:07:50.859Z,1008.19
2018-06-09T09:08:50.781Z,1008.20
2018-06-09T09:09:50.706Z,1008.11
2018-06-09T09:10:50.613Z,1008.13
2018-06-09T09:11:50.537Z,1008.24
2018-06-09T09:12:50.455Z,1008.16
2018-06-09T09:13:50.378Z,1008.10
2018-06-09T09:14:50.300Z,1008.11
2018-06-09T09:15:50.221Z,1008.11
2018-06-09T09:16:50.147Z,1008.14
2018-06-09T09:17:50.066Z,1008.19
2018-06-09T09:18:49.973Z,1008.19
2018-06-09T09:19:49.895Z,1008.20
2018-06-09T09:20:50.066Z,1008.15
2018-06-09T09:21:49.738Z,1008.18
2018-06-09T09:22:49.661Z,1008.15
2018-06-09T09:23:49.594Z,1008.18
2018-06-09T09:24:49.503Z,1008.17
2018-06-09T09:25:49.462Z,1008.16
2018-06-09T09:26:49.349Z,1008.14
2018-06-09T09:27:49.271Z,1008.08
2018-06-09T09:28:49.189Z,1008.05
2018-06-09T09:29:49.100Z,1008.07
2018-06-09T09:30:49.021Z,1008.04
2018-06-09T09:31:48.943Z,1008.10
2018-06-09T09:32:48.865Z,1008.13
2018-06-09T09:33:48.797Z,1008.06
2018-06-09T09:34:48.708Z,1008.12
2018-06-09T09:35:48.633Z,1008.14
2018-06-09T09:36:48.552Z,1008.10
2018-06-09T09:37:48.474Z,1008.17
2018-06-09T09:38:48.395Z,1008.16
2018-06-09T09:39:48.317Z,1008.19
2018-06-09T09:40:48.240Z,1008.20
2018-06-09T09:41:48.160Z,1008.17
2018-06-09T09:42:48.082Z,1008.14
2018-06-09T09:43:48.004Z,1008.16
2018-06-09T09:44:47.926Z,1008.14
2018-06-09T09:45:47.847Z,1008.09
2018-06-09T09:46:47.768Z,1008.06
2018-06-09T09:47:47.690Z,1008.14
2018-06-09T09:48:47.612Z,1008.03
2018-06-09T09:49:47.535Z,1008.07
2018-06-09T09:50:47.455Z,1008.14
2018-06-09T09:51:47.377Z,1008.07
2018-06-09T09:52:47.324Z,1008.06
2018-06-09T09:53:47.222Z,1008.09
2018-06-09T09:54:47.146Z,1008.00
2018-06-09T09:55:47.064Z,1007.99
2018-06-09T09:56:46.985Z,1007.97
2018-06-09T09:57:46.908Z,1007.99
2018-06-09T09:58:46.830Z,1008.07
2018-06-09T09:59:46.750Z,1007.99
2018-06-09T10:00:46.673Z,1007.98
2018-06-09T10:01:46.595Z,1007.97
2018-06-09T10:02:46.515Z,1007.90
2018-06-09T10:03:46.439Z,1007.91
2018-06-09T10:04:46.392Z,1007.93
2018-06-09T10:05:46.292Z,1007.86
2018-06-09T10:06:46.215Z,1007.87
2018-06-09T10:07:46.136Z,1007.91
2018-06-09T10:08:46.058Z,1007.93
2018-06-09T10:09:45.992Z,1007.96
2018-06-09T10:10:45.901Z,1007.93
2018-06-09T10:11:45.822Z,1007.86
2018-06-09T10:12:45.758Z,1007.88
2018-06-09T10:13:45.667Z,1007.86
2018-06-09T10:14:45.601Z,1007.82
2018-06-09T10:15:45.523Z,1007.83
2018-06-09T10:16:45.444Z,1007.84
2018-06-09T10:17:45.366Z,1007.83
2018-06-09T10:18:45.299Z,1007.82
2018-06-09T10:19:45.209Z,1007.82
2018-06-09T10:20:45.143Z,1007.72
2018-06-09T10:21:45.064Z,1007.87
2018-06-09T10:22:44.987Z,1007.80
2018-06-09T10:23:44.908Z,1007.77
2018-06-09T10:24:44.829Z,1007.80
2018-06-09T10:25:44.752Z,1007.70
2018-06-09T10:26:44.688Z,1007.77
2018-06-09T10:27:44.608Z,1007.69
2018-06-09T10:28:44.529Z,1007.72
2018-06-09T10:29:44.451Z,1007.70
2018-06-09T10:30:44.384Z,1007.71
2018-06-09T10:31:44.336Z,1007.73
2018-06-09T10:32:44.257Z,1007.76
2018-06-09T10:33:44.150Z,1007.66
2018-06-09T10:34:44.085Z,1007.66
2018-06-09T10:35:44.008Z,1007.63
2018-06-09T10:36:43.928Z,1007.60
2018-06-09T10:37:43.851Z,1007.57
2018-06-09T10:38:43.789Z,1007.72
2018-06-09T10:39:43.706Z,1007.73
2018-06-09T10:40:43.626Z,1007.60
2018-06-09T10:41:43.561Z,1007.61
2018-06-09T10:42:43.483Z,1007.57
2018-06-09T10:43:43.405Z,1007.59
2018-06-09T10:44:43.328Z,1007.61
2018-06-09T10:45:43.260Z,1007.62
2018-06-09T10:46:43.184Z,1007.59
2018-06-09T10:47:43.103Z,1007.51
2018-06-09T10:48:43.026Z,1007.57
2018-06-09T10:49:42.960Z,1007.57
2018-06-09T10:50:42.881Z,1007.52
2018-06-09T10:51:42.803Z,1007.55
2018-06-09T10:52:42.725Z,1007.55
2018-06-09T10:53:42.658Z,1007.53
2018-06-09T10:54:42.580Z,1007.50
2018-06-09T10:55:42.502Z,1007.54
2018-06-09T10:56:42.423Z,1007.52
2018-06-09T10:57:42.346Z,1007.46
2018-06-09T10:58:42.280Z,1007.46
2018-06-09T10:59:42.201Z,1007.49
2018-06-09T11:00:42.123Z,1007.46
2018-06-09T11:01:42.049Z,1007.48
2018-06-09T11:02:41.978Z,1007.51
2018-06-09T11:03:41.903Z,1007.66
2018-06-09T11:04:41.822Z,1007.61
2018-06-09T11:05:41.994Z,1007.55
2018-06-09T11:06:41.679Z,1007.50
2018-06-09T11:07:41.600Z,1007.60
2018-06-09T11:08:41.524Z,1007.57
2018-06-09T11:09:41.444Z,1007.56
2018-06-09T11:10:41.379Z,1007.58
2018-06-09T11:11:41.301Z,1007.55
2018-06-09T11:12:41.222Z,1007.55
2018-06-09T11:13:41.142Z,1007.51
2018-06-09T11:14:41.066Z,1007.57
2018-06-09T11:15:40.999Z,1007.49
2018-06-09T11:16:40.921Z,1007.54
2018-06-09T11:17:40.842Z,1007.48
2018-06-09T11:18:40.764Z,1007.47
2018-06-09T11:19:40.697Z,1007.45
2018-06-09T11:20:40.870Z,1007.43
2018-06-09T11:21:40.541Z,1007.38
2018-06-09T11:22:40.466Z,1007.39
2018-06-09T11:23:40.398Z,1007.42
2018-06-09T11:24:40.319Z,1007.39
2018-06-09T11:25:40.240Z,1007.42
2018-06-09T11:26:40.163Z,1007.36
2018-06-09T11:27:40.096Z,1007.33
2018-06-09T11:28:40.031Z,1007.30
2018-06-09T11:29:39.940Z,1007.32
2018-06-09T11:30:39.861Z,1007.33
2018-06-09T11:31:39.784Z,1007.30
2018-06-09T11:32:39.717Z,1007.35
2018-06-09T11:33:39.639Z,1007.33
2018-06-09T11:34:39.561Z,1007.30
2018-06-09T11:35:39.483Z,1007.36
2018-06-09T11:36:39.430Z,1007.30
2018-06-09T11:37:39.338Z,1007.28
2018-06-09T11:38:39.260Z,1007.28
2018-06-09T11:39:39.183Z,1007.22
2018-06-09T11:40:39.103Z,1007.15
2018-06-09T11:41:39.026Z,1007.22
2018-06-09T11:42:38.962Z,1007.20
2018-06-09T11:43:38.881Z,1007.25
2018-06-09T11:44:38.803Z,1007.24
2018-06-09T11:45:38.724Z,1007.16
2018-06-09T11:46:38.646Z,1007.11
2018-06-09T11:47:38.568Z,1007.09
2018-06-09T11:48:38.501Z,1007.12
2018-06-09T11:49:38.424Z,1007.05
2018-06-09T11:50:38.344Z,1007.08
2018-06-09T11:51:38.271Z,1007.13
2018-06-09T11:52:38.189Z,1007.10
2018-06-09T11:53:38.123Z,1007.04
2018-06-09T11:54:38.044Z,1007.01
2018-06-09T11:55:37.969Z,1006.98
2018-06-09T11:56:37.890Z,1007.00
2018-06-09T11:57:37.810Z,1007.02
2018-06-09T11:58:37.772Z,1006.97
2018-06-09T11:59:37.666Z,1006.95
2018-06-09T12:00:37.587Z,1006.98
2018-06-09T12:01:37.508Z,1006.94
2018-06-09T12:02:37.429Z,1006.94
2018-06-09T12:03:37.364Z,1006.96
2018-06-09T12:04:37.274Z,1006.96